Ahwaz, Iran
Current Conditions -  °F | °C
As of 7:25 AM on Monday 24 Nov 2014 (Local Time) from OIAW Reporting Station
Scattered Clouds Scattered Clouds  
Wind Chill: 59°   Ceiling: Unl
Heat Index: 59°   Visibility: 4mi
Dew Point: 54°   Wind: 0mph
Humidity: 82%   Direction: NA
Pressure: 29.94"   Gusts: NA
Location:  31.34°N, 48.76°E
Report Text: OIAW 240325Z 00000KT 6000 FEW040 SCT100 15/12 Q1014
Loading
Personal Weather Stations






























Interactive Weather Map New forecast layout! Learn more

10-Day Weather Forecast

Advertisements
Track Severe Weather on mobile